sensor_id;sensor_type;location;lat;lon;timestamp;P1;durP1;ratioP1;P2;durP2;ratioP2
53072;SDS011;38955;48.916;2.336;2023-11-19T00:01:38;1.58;;;1.00;;
53072;SDS011;38955;48.916;2.336;2023-11-19T00:03:40;1.65;;;0.82;;
53072;SDS011;38955;48.916;2.336;2023-11-19T00:05:42;3.30;;;0.88;;
53072;SDS011;38955;48.916;2.336;2023-11-19T00:07:44;4.57;;;0.90;;
53072;SDS011;38955;48.916;2.336;2023-11-19T00:09:48;4.57;;;1.00;;
53072;SDS011;38955;48.916;2.336;2023-11-19T00:11:50;1.47;;;0.93;;
53072;SDS011;38955;48.916;2.336;2023-11-19T00:13:55;2.60;;;0.90;;
53072;SDS011;38955;48.916;2.336;2023-11-19T00:15:57;2.72;;;0.80;;
53072;SDS011;38955;48.916;2.336;2023-11-19T00:17:59;3.63;;;0.70;;
53072;SDS011;38955;48.916;2.336;2023-11-19T00:20:06;3.05;;;0.90;;
53072;SDS011;38955;48.916;2.336;2023-11-19T00:22:09;2.03;;;1.00;;
53072;SDS011;38955;48.916;2.336;2023-11-19T00:24:11;2.90;;;1.05;;
53072;SDS011;38955;48.916;2.336;2023-11-19T00:26:18;4.72;;;1.05;;
53072;SDS011;38955;48.916;2.336;2023-11-19T00:28:21;2.92;;;1.15;;
53072;SDS011;38955;48.916;2.336;2023-11-19T00:30:23;4.85;;;1.10;;
53072;SDS011;38955;48.916;2.336;2023-11-19T00:32:25;3.10;;;0.93;;
53072;SDS011;38955;48.916;2.336;2023-11-19T00:34:27;2.45;;;0.82;;
53072;SDS011;38955;48.916;2.336;2023-11-19T00:36:29;1.75;;;0.80;;
53072;SDS011;38955;48.916;2.336;2023-11-19T00:38:31;3.30;;;1.05;;
53072;SDS011;38955;48.916;2.336;2023-11-19T00:40:33;2.22;;;0.90;;
53072;SDS011;38955;48.916;2.336;2023-11-19T00:42:37;4.13;;;1.10;;
53072;SDS011;38955;48.916;2.336;2023-11-19T00:44:39;2.60;;;0.82;;
53072;SDS011;38955;48.916;2.336;2023-11-19T00:46:51;3.65;;;0.80;;
53072;SDS011;38955;48.916;2.336;2023-11-19T00:48:53;2.67;;;1.25;;
53072;SDS011;38955;48.916;2.336;2023-11-19T00:50:56;3.47;;;1.13;;
53072;SDS011;38955;48.916;2.336;2023-11-19T00:52:58;5.43;;;1.08;;
53072;SDS011;38955;48.916;2.336;2023-11-19T00:55:00;3.13;;;0.85;;
53072;SDS011;38955;48.916;2.336;2023-11-19T00:57:03;3.95;;;0.80;;
53072;SDS011;38955;48.916;2.336;2023-11-19T00:59:06;3.72;;;1.58;;
53072;SDS011;38955;48.916;2.336;2023-11-19T01:01:11;5.35;;;1.40;;
53072;SDS011;38955;48.916;2.336;2023-11-19T01:03:13;3.65;;;1.17;;
53072;SDS011;38955;48.916;2.336;2023-11-19T01:05:16;4.03;;;1.05;;
53072;SDS011;38955;48.916;2.336;2023-11-19T01:07:22;2.85;;;1.08;;
53072;SDS011;38955;48.916;2.336;2023-11-19T01:09:25;1.45;;;0.80;;
53072;SDS011;38955;48.916;2.336;2023-11-19T01:11:27;1.83;;;0.90;;
53072;SDS011;38955;48.916;2.336;2023-11-19T01:13:30;3.90;;;1.10;;
53072;SDS011;38955;48.916;2.336;2023-11-19T01:15:33;3.22;;;0.77;;
53072;SDS011;38955;48.916;2.336;2023-11-19T01:17:36;2.97;;;0.90;;
53072;SDS011;38955;48.916;2.336;2023-11-19T01:19:38;3.38;;;0.95;;
53072;SDS011;38955;48.916;2.336;2023-11-19T01:21:40;4.50;;;1.50;;
53072;SDS011;38955;48.916;2.336;2023-11-19T01:23:42;1.58;;;0.80;;
53072;SDS011;38955;48.916;2.336;2023-11-19T01:25:45;1.75;;;0.82;;
53072;SDS011;38955;48.916;2.336;2023-11-19T01:27:47;6.38;;;1.02;;
53072;SDS011;38955;48.916;2.336;2023-11-19T01:29:49;7.07;;;1.08;;
53072;SDS011;38955;48.916;2.336;2023-11-19T01:31:52;4.63;;;1.02;;
53072;SDS011;38955;48.916;2.336;2023-11-19T01:33:54;3.22;;;1.10;;
53072;SDS011;38955;48.916;2.336;2023-11-19T01:35:56;3.08;;;0.95;;
53072;SDS011;38955;48.916;2.336;2023-11-19T01:38:00;4.00;;;1.17;;
53072;SDS011;38955;48.916;2.336;2023-11-19T01:40:02;3.45;;;0.80;;
53072;SDS011;38955;48.916;2.336;2023-11-19T01:42:06;3.57;;;1.00;;
53072;SDS011;38955;48.916;2.336;2023-11-19T01:44:08;2.33;;;0.85;;
53072;SDS011;38955;48.916;2.336;2023-11-19T01:46:10;4.70;;;0.95;;
53072;SDS011;38955;48.916;2.336;2023-11-19T01:48:14;2.90;;;1.20;;
53072;SDS011;38955;48.916;2.336;2023-11-19T01:50:16;1.58;;;1.00;;
53072;SDS011;38955;48.916;2.336;2023-11-19T01:52:18;4.82;;;1.20;;
53072;SDS011;38955;48.916;2.336;2023-11-19T01:54:21;5.57;;;1.08;;
53072;SDS011;38955;48.916;2.336;2023-11-19T01:56:24;6.45;;;1.17;;
53072;SDS011;38955;48.916;2.336;2023-11-19T01:58:28;6.65;;;0.90;;
53072;SDS011;38955;48.916;2.336;2023-11-19T02:00:31;1.83;;;0.80;;
53072;SDS011;38955;48.916;2.336;2023-11-19T02:02:35;6.38;;;1.20;;
53072;SDS011;38955;48.916;2.336;2023-11-19T02:04:38;2.90;;;0.80;;
53072;SDS011;38955;48.916;2.336;2023-11-19T02:06:42;6.80;;;1.17;;
53072;SDS011;38955;48.916;2.336;2023-11-19T02:08:46;2.90;;;0.80;;
53072;SDS011;38955;48.916;2.336;2023-11-19T02:10:48;4.95;;;1.52;;
53072;SDS011;38955;48.916;2.336;2023-11-19T02:12:50;2.38;;;0.80;;
53072;SDS011;38955;48.916;2.336;2023-11-19T02:14:53;4.60;;;1.27;;
53072;SDS011;38955;48.916;2.336;2023-11-19T02:16:55;4.28;;;0.82;;
53072;SDS011;38955;48.916;2.336;2023-11-19T02:18:57;3.15;;;1.00;;
53072;SDS011;38955;48.916;2.336;2023-11-19T02:21:00;3.78;;;1.42;;
53072;SDS011;38955;48.916;2.336;2023-11-19T02:23:03;3.65;;;1.02;;
53072;SDS011;38955;48.916;2.336;2023-11-19T02:25:06;4.55;;;1.00;;
53072;SDS011;38955;48.916;2.336;2023-11-19T02:27:14;14.52;;;1.30;;
53072;SDS011;38955;48.916;2.336;2023-11-19T02:29:22;3.47;;;1.05;;
53072;SDS011;38955;48.916;2.336;2023-11-19T02:31:25;6.90;;;1.40;;
53072;SDS011;38955;48.916;2.336;2023-11-19T02:33:29;5.78;;;1.20;;
53072;SDS011;38955;48.916;2.336;2023-11-19T02:35:31;4.90;;;1.40;;
53072;SDS011;38955;48.916;2.336;2023-11-19T02:37:34;5.60;;;0.90;;
53072;SDS011;38955;48.916;2.336;2023-11-19T02:39:37;4.93;;;1.42;;
53072;SDS011;38955;48.916;2.336;2023-11-19T02:41:39;7.55;;;1.30;;
53072;SDS011;38955;48.916;2.336;2023-11-19T02:43:41;8.25;;;1.58;;
53072;SDS011;38955;48.916;2.336;2023-11-19T02:45:45;4.43;;;1.70;;
53072;SDS011;38955;48.916;2.336;2023-11-19T02:47:47;3.55;;;1.35;;
53072;SDS011;38955;48.916;2.336;2023-11-19T02:49:49;5.75;;;1.42;;
53072;SDS011;38955;48.916;2.336;2023-11-19T02:51:54;6.22;;;1.45;;
53072;SDS011;38955;48.916;2.336;2023-11-19T02:53:56;5.65;;;1.33;;
53072;SDS011;38955;48.916;2.336;2023-11-19T02:55:59;6.20;;;1.77;;
53072;SDS011;38955;48.916;2.336;2023-11-19T02:58:17;5.32;;;1.30;;
53072;SDS011;38955;48.916;2.336;2023-11-19T03:00:25;3.47;;;1.50;;
53072;SDS011;38955;48.916;2.336;2023-11-19T03:02:36;5.38;;;1.48;;
53072;SDS011;38955;48.916;2.336;2023-11-19T03:04:46;8.05;;;1.83;;
53072;SDS011;38955;48.916;2.336;2023-11-19T03:06:48;6.47;;;1.52;;
53072;SDS011;38955;48.916;2.336;2023-11-19T03:08:50;6.28;;;1.98;;
53072;SDS011;38955;48.916;2.336;2023-11-19T03:10:52;3.92;;;1.25;;
53072;SDS011;38955;48.916;2.336;2023-11-19T03:12:55;11.30;;;2.45;;
53072;SDS011;38955;48.916;2.336;2023-11-19T03:14:58;10.00;;;1.80;;
53072;SDS011;38955;48.916;2.336;2023-11-19T03:17:00;9.30;;;1.35;;
53072;SDS011;38955;48.916;2.336;2023-11-19T03:19:04;4.25;;;1.55;;
53072;SDS011;38955;48.916;2.336;2023-11-19T03:21:06;6.60;;;1.50;;
53072;SDS011;38955;48.916;2.336;2023-11-19T03:23:09;7.03;;;1.60;;
53072;SDS011;38955;48.916;2.336;2023-11-19T03:25:11;5.88;;;1.63;;
53072;SDS011;38955;48.916;2.336;2023-11-19T03:27:14;6.60;;;1.52;;
53072;SDS011;38955;48.916;2.336;2023-11-19T03:29:18;8.88;;;1.83;;
53072;SDS011;38955;48.916;2.336;2023-11-19T03:31:20;4.55;;;1.30;;
53072;SDS011;38955;48.916;2.336;2023-11-19T03:33:22;5.15;;;1.45;;
53072;SDS011;38955;48.916;2.336;2023-11-19T03:35:25;11.75;;;2.22;;
53072;SDS011;38955;48.916;2.336;2023-11-19T03:37:29;9.48;;;1.40;;
53072;SDS011;38955;48.916;2.336;2023-11-19T03:39:31;5.10;;;1.25;;
53072;SDS011;38955;48.916;2.336;2023-11-19T03:41:33;5.18;;;1.20;;
53072;SDS011;38955;48.916;2.336;2023-11-19T03:45:40;7.43;;;1.58;;
53072;SDS011;38955;48.916;2.336;2023-11-19T03:47:42;6.85;;;1.80;;
53072;SDS011;38955;48.916;2.336;2023-11-19T03:49:46;7.18;;;2.13;;
53072;SDS011;38955;48.916;2.336;2023-11-19T03:51:51;6.97;;;1.60;;
53072;SDS011;38955;48.916;2.336;2023-11-19T03:53:53;6.18;;;1.77;;
53072;SDS011;38955;48.916;2.336;2023-11-19T03:55:55;5.95;;;1.60;;
53072;SDS011;38955;48.916;2.336;2023-11-19T03:57:57;5.97;;;1.80;;
53072;SDS011;38955;48.916;2.336;2023-11-19T03:59:59;6.40;;;1.58;;
53072;SDS011;38955;48.916;2.336;2023-11-19T04:02:01;5.97;;;1.60;;
53072;SDS011;38955;48.916;2.336;2023-11-19T04:04:04;7.05;;;1.77;;
53072;SDS011;38955;48.916;2.336;2023-11-19T04:06:06;11.02;;;1.92;;
53072;SDS011;38955;48.916;2.336;2023-11-19T04:08:10;7.72;;;1.98;;
53072;SDS011;38955;48.916;2.336;2023-11-19T04:10:12;9.10;;;1.52;;
53072;SDS011;38955;48.916;2.336;2023-11-19T04:12:16;10.73;;;1.50;;
53072;SDS011;38955;48.916;2.336;2023-11-19T04:14:18;9.95;;;1.80;;
53072;SDS011;38955;48.916;2.336;2023-11-19T04:16:25;9.10;;;1.58;;
53072;SDS011;38955;48.916;2.336;2023-11-19T04:18:29;5.07;;;1.38;;
53072;SDS011;38955;48.916;2.336;2023-11-19T04:20:31;11.75;;;2.30;;
53072;SDS011;38955;48.916;2.336;2023-11-19T04:22:33;10.48;;;2.13;;
53072;SDS011;38955;48.916;2.336;2023-11-19T04:24:36;6.38;;;1.80;;
53072;SDS011;38955;48.916;2.336;2023-11-19T04:26:40;7.43;;;1.73;;
53072;SDS011;38955;48.916;2.336;2023-11-19T04:28:43;9.63;;;1.67;;
53072;SDS011;38955;48.916;2.336;2023-11-19T04:30:45;9.27;;;2.00;;
53072;SDS011;38955;48.916;2.336;2023-11-19T04:32:47;8.85;;;2.15;;
53072;SDS011;38955;48.916;2.336;2023-11-19T04:34:50;6.60;;;1.98;;
53072;SDS011;38955;48.916;2.336;2023-11-19T04:36:52;6.35;;;1.80;;
53072;SDS011;38955;48.916;2.336;2023-11-19T04:38:55;11.40;;;2.22;;
53072;SDS011;38955;48.916;2.336;2023-11-19T04:40:58;3.95;;;1.58;;
53072;SDS011;38955;48.916;2.336;2023-11-19T04:43:01;9.35;;;1.88;;
53072;SDS011;38955;48.916;2.336;2023-11-19T04:45:04;6.65;;;1.95;;
53072;SDS011;38955;48.916;2.336;2023-11-19T04:47:08;10.10;;;2.60;;
53072;SDS011;38955;48.916;2.336;2023-11-19T04:49:12;7.82;;;2.60;;
53072;SDS011;38955;48.916;2.336;2023-11-19T04:51:15;7.60;;;1.75;;
53072;SDS011;38955;48.916;2.336;2023-11-19T04:53:18;6.07;;;1.58;;
53072;SDS011;38955;48.916;2.336;2023-11-19T04:55:20;4.15;;;1.50;;
53072;SDS011;38955;48.916;2.336;2023-11-19T04:57:23;5.88;;;1.95;;
53072;SDS011;38955;48.916;2.336;2023-11-19T04:59:25;7.18;;;1.98;;
53072;SDS011;38955;48.916;2.336;2023-11-19T05:01:29;4.32;;;1.63;;
53072;SDS011;38955;48.916;2.336;2023-11-19T05:03:31;7.72;;;1.70;;
53072;SDS011;38955;48.916;2.336;2023-11-19T05:05:33;5.70;;;1.70;;
53072;SDS011;38955;48.916;2.336;2023-11-19T05:07:35;6.53;;;1.98;;
53072;SDS011;38955;48.916;2.336;2023-11-19T05:09:38;10.00;;;2.08;;
53072;SDS011;38955;48.916;2.336;2023-11-19T05:11:40;9.02;;;2.38;;
53072;SDS011;38955;48.916;2.336;2023-11-19T05:15:48;8.70;;;1.92;;
53072;SDS011;38955;48.916;2.336;2023-11-19T05:17:50;5.63;;;1.50;;
53072;SDS011;38955;48.916;2.336;2023-11-19T05:19:52;5.65;;;1.65;;
53072;SDS011;38955;48.916;2.336;2023-11-19T05:21:55;8.23;;;1.85;;
53072;SDS011;38955;48.916;2.336;2023-11-19T05:23:56;6.80;;;1.95;;
53072;SDS011;38955;48.916;2.336;2023-11-19T05:25:59;7.55;;;1.58;;
53072;SDS011;38955;48.916;2.336;2023-11-19T05:28:01;7.80;;;1.73;;
53072;SDS011;38955;48.916;2.336;2023-11-19T05:30:05;7.90;;;2.40;;
53072;SDS011;38955;48.916;2.336;2023-11-19T05:32:09;7.10;;;1.83;;
53072;SDS011;38955;48.916;2.336;2023-11-19T05:34:11;7.20;;;1.80;;
53072;SDS011;38955;48.916;2.336;2023-11-19T05:36:13;9.82;;;2.10;;
53072;SDS011;38955;48.916;2.336;2023-11-19T05:38:15;7.10;;;1.70;;
53072;SDS011;38955;48.916;2.336;2023-11-19T05:40:17;7.32;;;1.95;;
53072;SDS011;38955;48.916;2.336;2023-11-19T05:42:21;10.98;;;2.50;;
53072;SDS011;38955;48.916;2.336;2023-11-19T05:44:25;10.45;;;2.80;;
53072;SDS011;38955;48.916;2.336;2023-11-19T05:46:28;8.85;;;1.98;;
53072;SDS011;38955;48.916;2.336;2023-11-19T05:48:30;11.00;;;2.30;;
53072;SDS011;38955;48.916;2.336;2023-11-19T05:50:32;10.80;;;2.85;;
53072;SDS011;38955;48.916;2.336;2023-11-19T05:52:35;9.05;;;2.85;;
53072;SDS011;38955;48.916;2.336;2023-11-19T05:54:37;11.70;;;2.60;;
53072;SDS011;38955;48.916;2.336;2023-11-19T05:56:40;8.48;;;2.00;;
53072;SDS011;38955;48.916;2.336;2023-11-19T05:58:43;9.63;;;1.92;;
53072;SDS011;38955;48.916;2.336;2023-11-19T06:00:46;7.50;;;2.20;;
53072;SDS011;38955;48.916;2.336;2023-11-19T06:02:50;7.05;;;2.30;;
53072;SDS011;38955;48.916;2.336;2023-11-19T06:04:52;12.57;;;2.15;;
53072;SDS011;38955;48.916;2.336;2023-11-19T06:06:54;8.48;;;2.10;;
53072;SDS011;38955;48.916;2.336;2023-11-19T06:08:57;7.40;;;2.08;;
53072;SDS011;38955;48.916;2.336;2023-11-19T06:10:59;7.68;;;2.10;;
53072;SDS011;38955;48.916;2.336;2023-11-19T06:13:03;9.07;;;2.00;;
53072;SDS011;38955;48.916;2.336;2023-11-19T06:15:07;9.23;;;2.90;;
53072;SDS011;38955;48.916;2.336;2023-11-19T06:17:10;9.10;;;2.72;;
53072;SDS011;38955;48.916;2.336;2023-11-19T06:19:14;8.60;;;2.00;;
53072;SDS011;38955;48.916;2.336;2023-11-19T06:21:16;11.00;;;3.30;;
53072;SDS011;38955;48.916;2.336;2023-11-19T06:23:18;9.45;;;2.47;;
53072;SDS011;38955;48.916;2.336;2023-11-19T06:25:20;8.05;;;2.15;;
53072;SDS011;38955;48.916;2.336;2023-11-19T06:27:23;9.32;;;2.53;;
53072;SDS011;38955;48.916;2.336;2023-11-19T06:29:25;11.10;;;1.73;;
53072;SDS011;38955;48.916;2.336;2023-11-19T06:31:27;11.07;;;2.55;;
53072;SDS011;38955;48.916;2.336;2023-11-19T06:33:29;12.25;;;3.50;;
53072;SDS011;38955;48.916;2.336;2023-11-19T06:35:32;9.90;;;2.47;;
53072;SDS011;38955;48.916;2.336;2023-11-19T06:37:38;13.10;;;2.38;;
53072;SDS011;38955;48.916;2.336;2023-11-19T06:39:40;11.82;;;2.63;;
53072;SDS011;38955;48.916;2.336;2023-11-19T06:41:44;10.40;;;2.72;;
53072;SDS011;38955;48.916;2.336;2023-11-19T06:43:46;9.90;;;2.42;;
53072;SDS011;38955;48.916;2.336;2023-11-19T06:45:49;8.45;;;1.90;;
53072;SDS011;38955;48.916;2.336;2023-11-19T06:47:51;10.95;;;2.35;;
53072;SDS011;38955;48.916;2.336;2023-11-19T06:49:53;12.82;;;2.65;;
53072;SDS011;38955;48.916;2.336;2023-11-19T06:51:56;9.00;;;2.47;;
53072;SDS011;38955;48.916;2.336;2023-11-19T06:53:58;11.35;;;2.50;;
53072;SDS011;38955;48.916;2.336;2023-11-19T06:56:01;14.63;;;3.08;;
53072;SDS011;38955;48.916;2.336;2023-11-19T06:58:07;12.70;;;3.47;;
53072;SDS011;38955;48.916;2.336;2023-11-19T07:00:09;11.80;;;2.70;;
53072;SDS011;38955;48.916;2.336;2023-11-19T07:02:12;15.32;;;2.97;;
53072;SDS011;38955;48.916;2.336;2023-11-19T07:04:15;13.23;;;2.40;;
53072;SDS011;38955;48.916;2.336;2023-11-19T07:06:17;15.85;;;3.40;;
53072;SDS011;38955;48.916;2.336;2023-11-19T07:08:21;10.18;;;2.33;;
53072;SDS011;38955;48.916;2.336;2023-11-19T07:10:23;12.75;;;3.72;;
53072;SDS011;38955;48.916;2.336;2023-11-19T07:12:25;11.48;;;2.95;;
53072;SDS011;38955;48.916;2.336;2023-11-19T07:14:30;16.52;;;3.00;;
53072;SDS011;38955;48.916;2.336;2023-11-19T07:16:32;11.95;;;3.25;;
53072;SDS011;38955;48.916;2.336;2023-11-19T07:18:36;9.27;;;2.47;;
53072;SDS011;38955;48.916;2.336;2023-11-19T07:20:38;17.63;;;3.63;;
53072;SDS011;38955;48.916;2.336;2023-11-19T07:22:42;11.05;;;3.05;;
53072;SDS011;38955;48.916;2.336;2023-11-19T07:24:46;13.07;;;2.90;;
53072;SDS011;38955;48.916;2.336;2023-11-19T07:26:49;13.88;;;2.90;;
53072;SDS011;38955;48.916;2.336;2023-11-19T07:28:51;14.63;;;3.33;;
53072;SDS011;38955;48.916;2.336;2023-11-19T07:30:53;11.07;;;3.65;;
53072;SDS011;38955;48.916;2.336;2023-11-19T07:32:57;9.85;;;3.17;;
53072;SDS011;38955;48.916;2.336;2023-11-19T07:34:59;16.83;;;3.60;;
53072;SDS011;38955;48.916;2.336;2023-11-19T07:37:01;9.48;;;2.72;;
53072;SDS011;38955;48.916;2.336;2023-11-19T07:39:04;13.90;;;4.03;;
53072;SDS011;38955;48.916;2.336;2023-11-19T07:41:08;14.98;;;3.40;;
53072;SDS011;38955;48.916;2.336;2023-11-19T07:43:14;13.68;;;3.47;;
53072;SDS011;38955;48.916;2.336;2023-11-19T07:45:16;17.73;;;4.25;;
53072;SDS011;38955;48.916;2.336;2023-11-19T07:47:19;13.73;;;3.70;;
53072;SDS011;38955;48.916;2.336;2023-11-19T07:49:21;15.82;;;3.80;;
53072;SDS011;38955;48.916;2.336;2023-11-19T07:51:23;9.70;;;3.28;;
53072;SDS011;38955;48.916;2.336;2023-11-19T07:53:25;16.35;;;3.63;;
53072;SDS011;38955;48.916;2.336;2023-11-19T07:55:27;14.93;;;4.45;;
53072;SDS011;38955;48.916;2.336;2023-11-19T07:57:31;13.15;;;3.85;;
53072;SDS011;38955;48.916;2.336;2023-11-19T07:59:33;13.70;;;3.45;;
53072;SDS011;38955;48.916;2.336;2023-11-19T08:01:35;18.15;;;5.28;;
53072;SDS011;38955;48.916;2.336;2023-11-19T08:03:37;19.10;;;3.70;;
53072;SDS011;38955;48.916;2.336;2023-11-19T08:05:40;13.77;;;3.28;;
53072;SDS011;38955;48.916;2.336;2023-11-19T08:07:42;20.55;;;6.15;;
53072;SDS011;38955;48.916;2.336;2023-11-19T08:09:44;16.55;;;4.35;;
53072;SDS011;38955;48.916;2.336;2023-11-19T08:11:46;14.10;;;4.93;;
53072;SDS011;38955;48.916;2.336;2023-11-19T08:13:50;18.17;;;3.95;;
53072;SDS011;38955;48.916;2.336;2023-11-19T08:15:52;14.07;;;4.13;;
53072;SDS011;38955;48.916;2.336;2023-11-19T08:17:54;17.10;;;3.28;;
53072;SDS011;38955;48.916;2.336;2023-11-19T08:19:56;18.27;;;4.85;;
53072;SDS011;38955;48.916;2.336;2023-11-19T08:21:58;13.00;;;3.05;;
53072;SDS011;38955;48.916;2.336;2023-11-19T08:24:00;19.17;;;4.45;;
53072;SDS011;38955;48.916;2.336;2023-11-19T08:26:03;20.27;;;4.25;;
53072;SDS011;38955;48.916;2.336;2023-11-19T08:28:05;17.38;;;4.30;;
53072;SDS011;38955;48.916;2.336;2023-11-19T08:30:09;14.82;;;3.60;;
53072;SDS011;38955;48.916;2.336;2023-11-19T08:32:12;23.13;;;7.40;;
53072;SDS011;38955;48.916;2.336;2023-11-19T08:34:14;15.07;;;4.45;;
53072;SDS011;38955;48.916;2.336;2023-11-19T08:36:17;10.80;;;2.88;;
53072;SDS011;38955;48.916;2.336;2023-11-19T08:38:19;19.02;;;3.40;;
53072;SDS011;38955;48.916;2.336;2023-11-19T08:42:27;19.23;;;3.40;;
53072;SDS011;38955;48.916;2.336;2023-11-19T08:44:29;15.10;;;4.00;;
53072;SDS011;38955;48.916;2.336;2023-11-19T08:46:32;13.30;;;3.65;;
53072;SDS011;38955;48.916;2.336;2023-11-19T08:48:35;20.70;;;4.55;;
53072;SDS011;38955;48.916;2.336;2023-11-19T08:50:37;20.17;;;5.05;;
53072;SDS011;38955;48.916;2.336;2023-11-19T08:52:39;19.17;;;3.58;;
53072;SDS011;38955;48.916;2.336;2023-11-19T08:54:42;17.17;;;6.03;;
53072;SDS011;38955;48.916;2.336;2023-11-19T08:56:44;16.45;;;3.67;;
53072;SDS011;38955;48.916;2.336;2023-11-19T08:58:46;17.90;;;4.20;;
53072;SDS011;38955;48.916;2.336;2023-11-19T09:00:48;21.15;;;4.47;;
53072;SDS011;38955;48.916;2.336;2023-11-19T09:02:51;15.32;;;4.45;;
53072;SDS011;38955;48.916;2.336;2023-11-19T09:04:53;16.77;;;4.50;;
53072;SDS011;38955;48.916;2.336;2023-11-19T09:06:57;21.58;;;5.05;;
53072;SDS011;38955;48.916;2.336;2023-11-19T09:08:59;15.73;;;3.88;;
53072;SDS011;38955;48.916;2.336;2023-11-19T09:11:06;20.20;;;4.15;;
53072;SDS011;38955;48.916;2.336;2023-11-19T09:13:10;17.52;;;4.50;;
53072;SDS011;38955;48.916;2.336;2023-11-19T09:15:12;22.90;;;4.85;;
53072;SDS011;38955;48.916;2.336;2023-11-19T09:17:14;25.15;;;6.15;;
53072;SDS011;38955;48.916;2.336;2023-11-19T09:19:18;20.25;;;4.22;;
53072;SDS011;38955;48.916;2.336;2023-11-19T09:21:20;20.23;;;4.45;;
53072;SDS011;38955;48.916;2.336;2023-11-19T09:23:22;17.20;;;4.72;;
53072;SDS011;38955;48.916;2.336;2023-11-19T09:25:26;22.52;;;4.57;;
53072;SDS011;38955;48.916;2.336;2023-11-19T09:27:44;14.65;;;3.80;;
53072;SDS011;38955;48.916;2.336;2023-11-19T09:29:46;16.35;;;4.18;;
53072;SDS011;38955;48.916;2.336;2023-11-19T09:31:51;22.00;;;4.70;;
53072;SDS011;38955;48.916;2.336;2023-11-19T09:33:53;24.88;;;4.45;;
53072;SDS011;38955;48.916;2.336;2023-11-19T09:35:56;15.95;;;3.60;;
53072;SDS011;38955;48.916;2.336;2023-11-19T09:37:59;17.40;;;4.50;;
53072;SDS011;38955;48.916;2.336;2023-11-19T09:42:06;22.67;;;4.72;;
53072;SDS011;38955;48.916;2.336;2023-11-19T09:44:08;23.25;;;5.10;;
53072;SDS011;38955;48.916;2.336;2023-11-19T09:46:13;21.25;;;5.88;;
53072;SDS011;38955;48.916;2.336;2023-11-19T09:48:18;15.82;;;4.22;;
53072;SDS011;38955;48.916;2.336;2023-11-19T09:50:20;16.98;;;4.40;;
53072;SDS011;38955;48.916;2.336;2023-11-19T09:52:24;24.00;;;5.40;;
53072;SDS011;38955;48.916;2.336;2023-11-19T09:54:26;20.73;;;4.85;;
53072;SDS011;38955;48.916;2.336;2023-11-19T09:56:33;27.90;;;5.68;;
53072;SDS011;38955;48.916;2.336;2023-11-19T09:58:43;21.08;;;4.15;;
53072;SDS011;38955;48.916;2.336;2023-11-19T10:00:49;22.63;;;5.30;;
53072;SDS011;38955;48.916;2.336;2023-11-19T10:03:13;18.77;;;5.32;;
53072;SDS011;38955;48.916;2.336;2023-11-19T10:05:16;22.95;;;4.95;;
53072;SDS011;38955;48.916;2.336;2023-11-19T10:07:18;31.73;;;5.57;;
53072;SDS011;38955;48.916;2.336;2023-11-19T10:09:23;24.65;;;4.90;;
53072;SDS011;38955;48.916;2.336;2023-11-19T10:11:25;24.10;;;4.57;;
53072;SDS011;38955;48.916;2.336;2023-11-19T10:13:28;23.45;;;4.75;;
53072;SDS011;38955;48.916;2.336;2023-11-19T10:15:36;23.90;;;5.07;;
53072;SDS011;38955;48.916;2.336;2023-11-19T10:17:38;17.55;;;4.72;;
53072;SDS011;38955;48.916;2.336;2023-11-19T10:19:41;19.60;;;4.28;;
53072;SDS011;38955;48.916;2.336;2023-11-19T10:21:44;18.35;;;4.45;;
53072;SDS011;38955;48.916;2.336;2023-11-19T10:23:48;24.42;;;5.15;;
53072;SDS011;38955;48.916;2.336;2023-11-19T10:25:54;28.15;;;4.72;;
53072;SDS011;38955;48.916;2.336;2023-11-19T10:28:06;20.80;;;5.05;;
53072;SDS011;38955;48.916;2.336;2023-11-19T10:30:09;22.17;;;4.75;;
53072;SDS011;38955;48.916;2.336;2023-11-19T10:32:13;16.45;;;4.00;;
53072;SDS011;38955;48.916;2.336;2023-11-19T10:34:27;19.98;;;3.83;;
53072;SDS011;38955;48.916;2.336;2023-11-19T10:36:37;24.02;;;5.55;;
53072;SDS011;38955;48.916;2.336;2023-11-19T10:38:51;20.75;;;4.45;;
53072;SDS011;38955;48.916;2.336;2023-11-19T10:40:55;20.35;;;4.22;;
53072;SDS011;38955;48.916;2.336;2023-11-19T10:43:01;23.85;;;4.57;;
53072;SDS011;38955;48.916;2.336;2023-11-19T10:45:04;22.00;;;5.15;;
53072;SDS011;38955;48.916;2.336;2023-11-19T10:47:23;23.60;;;5.55;;
53072;SDS011;38955;48.916;2.336;2023-11-19T10:49:28;18.73;;;4.80;;
53072;SDS011;38955;48.916;2.336;2023-11-19T10:51:30;24.48;;;5.63;;
53072;SDS011;38955;48.916;2.336;2023-11-19T10:53:33;17.55;;;4.15;;
53072;SDS011;38955;48.916;2.336;2023-11-19T10:55:39;21.77;;;4.63;;
53072;SDS011;38955;48.916;2.336;2023-11-19T10:57:43;29.90;;;5.78;;
53072;SDS011;38955;48.916;2.336;2023-11-19T10:59:48;22.85;;;4.63;;
53072;SDS011;38955;48.916;2.336;2023-11-19T11:04:03;29.00;;;6.20;;
53072;SDS011;38955;48.916;2.336;2023-11-19T11:06:05;19.40;;;4.97;;
53072;SDS011;38955;48.916;2.336;2023-11-19T11:08:08;23.58;;;5.78;;
53072;SDS011;38955;48.916;2.336;2023-11-19T11:10:10;24.40;;;6.15;;
53072;SDS011;38955;48.916;2.336;2023-11-19T11:12:14;23.40;;;6.20;;
53072;SDS011;38955;48.916;2.336;2023-11-19T11:14:20;21.02;;;4.95;;
53072;SDS011;38955;48.916;2.336;2023-11-19T11:16:23;25.63;;;5.68;;
53072;SDS011;38955;48.916;2.336;2023-11-19T11:18:26;19.98;;;4.82;;
53072;SDS011;38955;48.916;2.336;2023-11-19T11:20:29;18.23;;;4.55;;
53072;SDS011;38955;48.916;2.336;2023-11-19T11:22:34;19.17;;;4.65;;
53072;SDS011;38955;48.916;2.336;2023-11-19T11:25:11;17.90;;;4.60;;
53072;SDS011;38955;48.916;2.336;2023-11-19T11:27:35;22.73;;;5.57;;
53072;SDS011;38955;48.916;2.336;2023-11-19T11:29:56;28.45;;;5.38;;
53072;SDS011;38955;48.916;2.336;2023-11-19T11:32:08;25.77;;;5.20;;
53072;SDS011;38955;48.916;2.336;2023-11-19T11:36:53;23.92;;;5.10;;
53072;SDS011;38955;48.916;2.336;2023-11-19T11:39:04;22.20;;;4.75;;
53072;SDS011;38955;48.916;2.336;2023-11-19T11:41:15;22.10;;;5.70;;
53072;SDS011;38955;48.916;2.336;2023-11-19T11:45:48;20.55;;;4.18;;
53072;SDS011;38955;48.916;2.336;2023-11-19T11:50:21;24.20;;;5.97;;
53072;SDS011;38955;48.916;2.336;2023-11-19T11:52:24;28.25;;;5.38;;
53072;SDS011;38955;48.916;2.336;2023-11-19T11:54:28;20.55;;;4.95;;
53072;SDS011;38955;48.916;2.336;2023-11-19T11:56:33;23.65;;;5.25;;
53072;SDS011;38955;48.916;2.336;2023-11-19T11:58:38;29.00;;;5.75;;
53072;SDS011;38955;48.916;2.336;2023-11-19T12:00:48;23.33;;;5.28;;
53072;SDS011;38955;48.916;2.336;2023-11-19T12:02:50;23.70;;;5.90;;
53072;SDS011;38955;48.916;2.336;2023-11-19T12:04:52;26.00;;;5.32;;
53072;SDS011;38955;48.916;2.336;2023-11-19T12:09:16;27.77;;;8.55;;
53072;SDS011;38955;48.916;2.336;2023-11-19T12:11:20;22.27;;;5.20;;
53072;SDS011;38955;48.916;2.336;2023-11-19T12:13:29;23.80;;;5.97;;
53072;SDS011;38955;48.916;2.336;2023-11-19T12:16:08;30.63;;;5.82;;
53072;SDS011;38955;48.916;2.336;2023-11-19T12:18:10;24.05;;;5.53;;
53072;SDS011;38955;48.916;2.336;2023-11-19T12:20:12;21.42;;;4.85;;
53072;SDS011;38955;48.916;2.336;2023-11-19T12:22:14;22.65;;;4.88;;
53072;SDS011;38955;48.916;2.336;2023-11-19T12:24:17;25.20;;;5.40;;
53072;SDS011;38955;48.916;2.336;2023-11-19T12:26:32;21.08;;;4.88;;
53072;SDS011;38955;48.916;2.336;2023-11-19T12:28:41;25.58;;;5.13;;
53072;SDS011;38955;48.916;2.336;2023-11-19T12:31:08;22.80;;;5.18;;
53072;SDS011;38955;48.916;2.336;2023-11-19T12:33:11;21.17;;;5.30;;
53072;SDS011;38955;48.916;2.336;2023-11-19T12:35:14;25.70;;;5.07;;
53072;SDS011;38955;48.916;2.336;2023-11-19T12:37:16;20.02;;;4.75;;
53072;SDS011;38955;48.916;2.336;2023-11-19T12:39:18;20.27;;;5.28;;
53072;SDS011;38955;48.916;2.336;2023-11-19T12:41:21;25.92;;;5.35;;